Time;durP1;ratioP1;P1;durP2;ratioP2;P2;SDS_P1;SDS_P2;PMS_P1;PMS_P2;Temp;Humidity;BMP_temperature;BMP_pressure;BME280_temperature;BME280_humidity;BME280_pressure;Samples;Min_cycle;Max_cycle;Signal;HPM_P1;HPM_P2
2022/05/02 00:02:19;;;;;;;12.57;6.45;;;8.10;99.90;;;;;;5091786;28;20762;-60
2022/05/02 00:04:46;;;;;;;10.65;6.70;;;8.10;99.90;;;;;;5085711;28;20120;-60
2022/05/02 00:07:14;;;;;;;;;;;8.10;99.90;;;;;;5080976;28;20075;-60
2022/05/02 00:09:40;;;;;;;12.30;6.57;;;8.10;99.90;;;;;;5077797;28;19925;-60
2022/05/02 00:12:07;;;;;;;9.02;6.40;;;8.00;99.90;;;;;;5071864;28;20414;-60
2022/05/02 00:14:35;;;;;;;9.20;6.07;;;8.00;99.90;;;;;;5075837;28;20063;-60
2022/05/02 00:17:02;;;;;;;12.63;6.15;;;8.00;99.90;;;;;;5083297;28;20089;-60
2022/05/02 00:19:28;;;;;;;9.82;6.60;;;8.00;99.90;;;;;;5091518;28;20506;-60
2022/05/02 00:21:55;;;;;;;9.45;5.93;;;7.90;99.90;;;;;;5090913;28;20093;-60
2022/05/02 00:24:22;;;;;;;9.97;6.17;;;7.90;99.90;;;;;;5082828;28;20461;-60
2022/05/02 00:26:48;;;;;;;10.20;6.38;;;7.90;99.90;;;;;;5091935;28;20278;-60
2022/05/02 00:29:15;;;;;;;12.82;7.07;;;7.80;99.90;;;;;;5073430;28;20097;-60
2022/05/02 00:31:42;;;;;;;8.45;6.13;;;7.80;99.90;;;;;;5066395;28;20052;-60
2022/05/02 00:34:09;;;;;;;10.43;5.73;;;7.80;99.90;;;;;;5088905;28;20047;-59
2022/05/02 00:36:35;;;;;;;11.00;6.20;;;7.80;99.90;;;;;;5091738;28;20306;-60
2022/05/02 00:39:02;;;;;;;8.27;5.60;;;7.80;99.90;;;;;;5086623;28;20290;-60
2022/05/02 00:41:29;;;;;;;9.35;6.13;;;7.80;99.90;;;;;;5083032;28;20290;-59
2022/05/02 00:43:56;;;;;;;10.95;6.22;;;7.80;99.90;;;;;;5091296;28;20051;-60
2022/05/02 00:46:25;;;;;;;11.02;6.25;;;7.70;99.90;;;;;;5089522;28;20044;-60
2022/05/02 00:48:53;;;;;;;10.32;6.50;;;7.70;99.90;;;;;;5079771;28;20040;-60
2022/05/02 00:51:21;;;;;;;;;;;7.70;99.90;;;;;;5090628;28;20043;-60
2022/05/02 00:53:51;;;;;;;9.50;5.93;;;7.60;99.90;;;;;;5091313;28;19965;-60
2022/05/02 00:56:20;;;;;;;9.63;6.05;;;7.60;99.90;;;;;;5089961;28;20052;-60
2022/05/02 00:58:50;;;;;;;9.43;6.38;;;7.60;99.90;;;;;;5082763;28;20436;-60
2022/05/02 01:01:17;;;;;;;11.02;6.13;;;7.50;99.90;;;;;;5091008;28;20044;-60
2022/05/02 01:03:44;;;;;;;;;;;7.50;99.90;;;;;;5091935;28;20441;-59
2022/05/02 01:08:57;;;;;;;8.25;5.43;;;7.50;99.90;;;;;;5091132;28;20047;-60
2022/05/02 01:11:23;;;;;;;9.65;6.82;;;7.50;99.90;;;;;;5090978;28;20454;-61
2022/05/02 01:13:50;;;;;;;8.65;5.60;;;7.50;99.90;;;;;;5086364;28;20408;-60
2022/05/02 01:16:25;;;;;;;7.95;5.60;;;7.50;99.90;;;;;;5081262;28;20118;-61
2022/05/02 01:18:57;;;;;;;6.90;5.28;;;7.50;99.90;;;;;;5091322;28;20036;-61
2022/05/02 01:21:27;;;;;;;10.18;5.50;;;7.50;99.90;;;;;;5091956;28;20250;-60
2022/05/02 01:23:57;;;;;;;9.80;5.85;;;8.10;99.90;;;;;;5083029;28;20443;-59
2022/05/02 01:26:23;;;;;;;8.88;5.75;;;7.40;99.90;;;;;;5094497;28;20450;-61
2022/05/02 01:28:57;;;;;;;9.95;5.82;;;7.40;99.90;;;;;;5095286;28;20062;-61
2022/05/02 01:31:24;;;;;;;9.60;5.50;;;7.40;99.90;;;;;;5082374;28;20452;-61
2022/05/02 01:33:52;;;;;;;;;;;7.30;99.90;;;;;;5083849;28;20107;-60
2022/05/02 01:36:20;;;;;;;9.93;5.72;;;7.40;99.90;;;;;;5085193;28;19920;-60
2022/05/02 01:38:47;;;;;;;9.07;5.47;;;7.30;99.90;;;;;;5094931;28;20040;-60
2022/05/02 01:41:15;;;;;;;8.77;5.68;;;7.30;99.90;;;;;;5076152;28;20036;-60
2022/05/02 01:43:42;;;;;;;8.93;6.25;;;7.30;99.90;;;;;;5085644;28;20049;-60
2022/05/02 01:46:11;;;;;;;10.77;5.68;;;7.30;99.90;;;;;;5086382;28;20078;-60
2022/05/02 01:48:38;;;;;;;9.02;5.38;;;7.40;99.90;;;;;;5087847;28;20047;-60
2022/05/02 01:51:05;;;;;;;10.57;5.90;;;7.40;99.90;;;;;;5094318;28;20044;-60
2022/05/02 01:53:32;;;;;;;11.45;6.03;;;7.40;99.90;;;;;;5090581;28;20060;-60
2022/05/02 01:55:58;;;;;;;10.27;5.88;;;7.40;99.90;;;;;;5082513;28;20102;-60
2022/05/02 01:58:25;;;;;;;8.55;5.93;;;7.40;99.90;;;;;;5094375;28;20040;-61
2022/05/02 02:00:52;;;;;;;8.10;5.28;;;7.40;99.90;;;;;;5076139;28;20389;-60
2022/05/02 02:03:19;;;;;;;8.18;5.63;;;7.40;99.90;;;;;;5086821;28;20063;-59
2022/05/02 02:05:49;;;;;;;9.30;5.30;;;7.40;99.90;;;;;;5088670;28;20123;-60
2022/05/02 02:08:25;;;;;;;9.93;5.93;;;7.40;99.90;;;;;;5094611;28;20036;-61
2022/05/02 02:10:57;;;;;;;6.90;5.03;;;7.40;99.90;;;;;;5088373;28;20040;-61
2022/05/02 02:13:24;;;;;;;8.68;5.70;;;7.40;99.90;;;;;;5085977;28;20059;-60
2022/05/02 02:15:51;;;;;;;9.20;5.85;;;7.40;99.90;;;;;;5094076;28;20044;-60
2022/05/02 02:18:18;;;;;;;6.85;4.82;;;7.40;99.90;;;;;;5094142;28;20043;-60
2022/05/02 02:20:49;;;;;;;8.80;6.03;;;7.40;99.90;;;;;;5086884;28;20040;-61
2022/05/02 02:23:16;;;;;;;9.35;5.60;;;7.40;99.90;;;;;;5085628;28;20070;-60
2022/05/02 02:25:43;;;;;;;9.65;5.80;;;7.40;99.90;;;;;;5093878;28;20036;-60
2022/05/02 02:28:12;;;;;;;12.40;5.60;;;7.40;99.90;;;;;;5094137;28;20044;-60
2022/05/02 02:30:39;;;;;;;8.68;5.53;;;7.50;99.90;;;;;;5085362;28;20106;-60
2022/05/02 02:33:05;;;;;;;8.23;5.40;;;7.40;99.90;;;;;;5090890;28;20432;-61
2022/05/02 02:35:32;;;;;;;9.40;6.07;;;7.40;99.90;;;;;;5093971;28;20044;-60
2022/05/02 02:37:59;;;;;;;6.85;5.03;;;7.40;99.90;;;;;;5087791;28;20082;-60
2022/05/02 02:40:26;;;;;;;14.85;5.53;;;7.50;99.90;;;;;;5084750;28;20032;-61
2022/05/02 02:42:53;;;;;;;8.00;4.80;;;7.50;99.90;;;;;;5093816;28;20044;-60
2022/05/02 02:45:20;;;;;;;8.80;5.15;;;7.40;99.90;;;;;;5093691;28;20054;-61
2022/05/02 02:47:47;;;;;;;9.63;4.65;;;7.40;99.90;;;;;;5082455;28;20149;-60
2022/05/02 02:50:14;;;;;;;7.07;4.78;;;7.40;99.90;;;;;;5073369;28;20059;-61
2022/05/02 02:52:41;;;;;;;8.43;4.97;;;7.40;99.90;;;;;;5093726;28;20044;-61
2022/05/02 02:55:08;;;;;;;8.65;4.57;;;7.50;99.90;;;;;;5085847;28;20037;-61
2022/05/02 02:57:35;;;;;;;7.82;5.05;;;7.50;99.90;;;;;;5085058;28;20036;-61
2022/05/02 03:00:03;;;;;;;6.38;4.60;;;7.50;99.90;;;;;;5093087;28;20105;-60
2022/05/02 03:02:30;;;;;;;6.95;4.82;;;7.50;99.90;;;;;;5093569;28;20044;-61
2022/05/02 03:07:43;;;;;;;10.02;4.90;;;7.50;99.90;;;;;;5086954;28;20113;-61
2022/05/02 03:10:10;;;;;;;6.85;4.78;;;7.40;99.90;;;;;;5092778;28;20055;-61
2022/05/02 03:12:37;;;;;;;6.95;4.55;;;7.40;99.90;;;;;;5084347;28;20044;-60
2022/05/02 03:15:53;;;;;;;7.35;4.47;;;7.40;99.90;;;;;;5101660;22;20044;-60
2022/05/02 03:19:12;;;;;;;6.47;4.20;;;7.50;99.90;;;;;;5045295;28;20408;-62
2022/05/02 03:21:38;;;;;;;8.60;4.60;;;7.50;99.90;;;;;;5092742;28;20040;-62
2022/05/02 03:24:06;;;;;;;6.13;4.60;;;7.50;99.90;;;;;;5085714;28;20475;-62
2022/05/02 03:26:32;;;;;;;6.55;4.18;;;7.50;99.90;;;;;;5072556;28;20040;-62
2022/05/02 03:28:59;;;;;;;9.35;5.00;;;7.40;99.90;;;;;;5072661;28;20048;-62
2022/05/02 03:31:26;;;;;;;6.97;4.35;;;7.40;99.90;;;;;;5071952;28;20158;-62
2022/05/02 03:33:53;;;;;;;7.10;4.75;;;7.50;99.90;;;;;;5080481;28;20047;-62
2022/05/02 03:36:19;;;;;;;7.18;4.18;;;7.50;99.90;;;;;;5091777;28;20044;-62
2022/05/02 03:38:46;;;;;;;7.32;5.00;;;7.50;99.90;;;;;;5092714;28;20051;-62
2022/05/02 03:41:13;;;;;;;9.68;5.25;;;7.60;99.90;;;;;;5090134;28;20051;-63
2022/05/02 03:43:40;;;;;;;10.23;4.65;;;7.60;99.90;;;;;;5083635;28;20070;-63
2022/05/02 03:46:07;;;;;;;;;;;7.60;99.90;;;;;;5093014;28;20044;-62
2022/05/02 03:48:34;;;;;;;7.03;4.40;;;7.60;99.90;;;;;;5092594;28;19933;-62
2022/05/02 03:51:01;;;;;;;6.50;4.40;;;7.60;99.90;;;;;;5086319;28;20036;-63
2022/05/02 03:53:27;;;;;;;5.03;3.88;;;7.50;99.90;;;;;;5084321;28;20075;-63
2022/05/02 03:55:54;;;;;;;6.78;4.30;;;7.50;99.90;;;;;;5092505;28;20040;-62
2022/05/02 03:58:21;;;;;;;6.50;4.35;;;7.50;99.90;;;;;;5091778;28;20430;-62
2022/05/02 04:00:48;;;;;;;7.00;4.13;;;7.50;99.90;;;;;;5079820;28;20055;-62
2022/05/02 04:03:15;;;;;;;6.07;4.80;;;7.50;99.90;;;;;;5072723;28;20040;-62
2022/05/02 04:05:42;;;;;;;6.35;4.40;;;7.60;99.90;;;;;;5092331;28;20127;-63
2022/05/02 04:08:08;;;;;;;5.47;3.90;;;7.60;99.90;;;;;;5084156;28;20489;-63
2022/05/02 04:10:35;;;;;;;6.40;4.50;;;7.60;99.90;;;;;;5083501;28;20040;-63
2022/05/02 04:13:02;;;;;;;8.88;4.85;;;7.60;99.90;;;;;;5092296;28;20666;-63
2022/05/02 04:15:29;;;;;;;5.90;4.22;;;7.60;99.90;;;;;;5089174;28;20036;-63
2022/05/02 04:17:58;;;;;;;6.38;4.22;;;7.60;99.90;;;;;;5091971;28;20051;-63
2022/05/02 04:20:25;;;;;;;6.05;4.07;;;7.60;99.90;;;;;;5071704;28;20052;-62
2022/05/02 04:22:52;;;;;;;5.65;4.15;;;7.60;99.90;;;;;;5071713;28;20040;-62
2022/05/02 04:25:18;;;;;;;6.20;4.40;;;7.60;99.90;;;;;;5073469;28;20090;-62
2022/05/02 04:27:45;;;;;;;6.15;4.10;;;7.60;99.90;;;;;;5091898;28;20117;-63
2022/05/02 04:30:12;;;;;;;7.75;4.18;;;7.70;99.90;;;;;;5091632;28;20089;-62
2022/05/02 04:32:39;;;;;;;;;;;7.60;99.90;;;;;;5092227;28;20047;-63
2022/05/02 04:35:06;;;;;;;5.88;4.55;;;7.70;99.90;;;;;;5085602;28;20388;-63
2022/05/02 04:37:33;;;;;;;5.72;4.13;;;7.70;99.90;;;;;;5087764;28;20059;-63
2022/05/02 04:40:00;;;;;;;6.30;4.47;;;7.80;99.90;;;;;;5090978;28;20040;-63
2022/05/02 04:42:27;;;;;;;8.40;4.65;;;7.80;99.90;;;;;;5091452;28;20278;-63
2022/05/02 04:44:53;;;;;;;7.55;4.50;;;7.90;99.90;;;;;;5089367;28;20109;-63
2022/05/02 04:47:20;;;;;;;6.78;4.03;;;7.90;99.90;;;;;;5091147;28;20040;-63
2022/05/02 04:49:53;;;;;;;5.15;3.97;;;7.90;99.90;;;;;;5091048;28;20062;-63
2022/05/02 04:52:19;;;;;;;7.30;4.35;;;7.90;99.90;;;;;;5088770;28;20085;-62
2022/05/02 04:54:46;;;;;;;8.73;4.47;;;8.00;99.90;;;;;;5085166;28;20036;-62
2022/05/02 04:57:14;;;;;;;7.25;4.82;;;8.00;99.90;;;;;;5082996;28;20066;-63
2022/05/02 04:59:40;;;;;;;4.90;3.47;;;8.10;99.90;;;;;;5091189;28;20036;-62
2022/05/02 05:02:09;;;;;;;12.27;5.63;;;8.10;99.90;;;;;;5088266;28;20040;-62
2022/05/02 05:04:36;;;;;;;9.30;6.15;;;8.20;99.90;;;;;;5082954;28;20036;-62
2022/05/02 05:07:03;;;;;;;9.52;6.32;;;8.30;99.90;;;;;;5091476;28;20079;-62
2022/05/02 05:09:30;;;;;;;9.13;5.95;;;8.40;99.90;;;;;;5090763;28;20036;-62
2022/05/02 05:12:20;;;;;;;10.75;6.47;;;8.50;99.90;;;;;;5082353;28;20119;-62
2022/05/02 05:18:04;;;;;;;10.13;6.47;;;8.60;99.90;;;;;;5071013;28;20032;-62
2022/05/02 05:20:49;;;;;;;11.60;6.82;;;8.70;99.90;;;;;;5074533;28;20592;-62
2022/05/02 05:23:28;;;;;;;11.60;6.80;;;8.70;99.90;;;;;;5082866;28;20036;-62
2022/05/02 05:26:15;;;;;;;10.70;6.65;;;8.70;99.90;;;;;;5091208;28;20040;-62
2022/05/02 05:28:56;;;;;;;12.05;7.30;;;8.80;99.90;;;;;;5091401;28;20511;-62
2022/05/02 05:31:41;;;;;;;11.82;7.15;;;8.80;99.90;;;;;;5081746;28;20063;-62
2022/05/02 05:34:29;;;;;;;13.07;7.07;;;8.90;99.90;;;;;;5091219;28;20087;-62
2022/05/02 05:37:27;;;;;;;15.57;7.30;;;8.90;99.90;;;;;;5091362;28;20044;-62
2022/05/02 05:39:57;;;;;;;8.27;5.97;;;8.90;99.90;;;;;;5087981;28;20377;-62
2022/05/02 05:42:49;;;;;;;8.77;6.13;;;8.90;99.90;;;;;;5070036;28;20468;-62
2022/05/02 05:45:27;;;;;;;8.05;5.35;;;9.00;99.90;;;;;;5069465;28;20528;-62
2022/05/02 05:48:00;;;;;;;7.57;5.50;;;9.00;99.90;;;;;;5079480;28;20689;-62
2022/05/02 05:50:31;;;;;;;10.25;5.75;;;9.00;99.90;;;;;;5070599;28;20737;-62
2022/05/02 05:53:08;;;;;;;7.82;5.70;;;9.10;99.90;;;;;;5070752;28;20040;-62
2022/05/02 05:55:44;;;;;;;9.00;5.93;;;9.10;99.90;;;;;;5070634;28;20102;-62
2022/05/02 05:58:20;;;;;;;10.65;6.25;;;9.20;99.90;;;;;;5080392;28;20044;-62
2022/05/02 06:00:50;;;;;;;14.40;6.30;;;9.30;99.90;;;;;;5090547;28;20037;-62
2022/05/02 06:03:23;;;;;;;7.55;5.50;;;9.30;99.90;;;;;;5090940;28;20050;-62
2022/05/02 06:05:50;;;;;;;10.77;6.47;;;9.40;99.90;;;;;;5083968;28;20373;-62
2022/05/02 06:08:23;;;;;;;12.88;6.43;;;9.50;99.90;;;;;;5086293;28;20048;-62
2022/05/02 06:10:51;;;;;;;9.98;7.03;;;9.60;99.90;;;;;;5094087;28;20097;-62
2022/05/02 06:13:19;;;;;;;10.60;6.38;;;9.70;99.90;;;;;;5091722;28;20040;-62
2022/05/02 06:18:57;;;;;;;11.82;7.13;;;9.80;99.90;;;;;;5074000;28;20049;-62
2022/05/02 06:21:25;;;;;;;10.57;7.55;;;9.90;99.90;;;;;;5074989;28;20066;-62
2022/05/02 06:23:52;;;;;;;14.07;7.80;;;9.90;99.90;;;;;;5091848;28;20043;-62
2022/05/02 06:26:22;;;;;;;14.63;9.00;;;9.90;99.90;;;;;;5083322;28;20085;-62
2022/05/02 06:28:51;;;;;;;13.23;7.50;;;10.00;99.90;;;;;;5094358;28;20048;-62
2022/05/02 06:31:21;;;;;;;13.70;8.23;;;10.10;99.90;;;;;;5091317;28;20473;-61
2022/05/02 06:33:50;;;;;;;14.35;8.20;;;10.20;99.90;;;;;;5085769;28;20042;-62
2022/05/02 06:36:29;;;;;;;13.90;8.02;;;10.30;99.90;;;;;;5093650;28;20047;-62
2022/05/02 06:39:09;;;;;;;16.10;7.45;;;10.40;99.90;;;;;;5093842;28;20126;-61
2022/05/02 06:41:35;;;;;;;14.55;7.80;;;10.40;99.90;;;;;;5088769;28;20446;-62
2022/05/02 06:44:13;;;;;;;16.27;8.15;;;10.40;99.90;;;;;;5085264;28;20032;-62
2022/05/02 06:46:59;;;;;;;13.73;8.63;;;10.50;99.90;;;;;;5093742;28;20466;-62
2022/05/02 06:49:26;;;;;;;14.95;7.75;;;10.60;99.90;;;;;;5083285;28;20048;-61
2022/05/02 06:51:57;;;;;;;12.65;8.13;;;10.70;99.90;;;;;;5085431;28;20044;-61
2022/05/02 06:54:34;;;;;;;12.25;8.57;;;10.90;99.90;;;;;;5093805;28;20070;-62
2022/05/02 06:57:10;;;;;;;13.18;8.73;;;11.00;99.90;;;;;;5092105;28;20059;-62
2022/05/02 07:00:19;;;;;;;13.32;9.13;;;11.10;99.90;;;;;;5091869;28;20032;-62
2022/05/02 07:03:18;;;;;;;12.68;8.43;;;11.10;99.90;;;;;;5011469;28;20049;-61
2022/05/02 07:06:33;;;;;;;13.07;8.75;;;11.20;99.90;;;;;;5079591;28;20036;-61
2022/05/02 07:09:04;;;;;;;12.57;8.77;;;11.20;99.90;;;;;;5065042;28;20056;-61
2022/05/02 07:11:47;;;;;;;14.75;9.35;;;11.00;99.90;;;;;;5092964;28;20044;-62
2022/05/02 07:14:42;;;;;;;11.25;8.60;;;11.00;99.90;;;;;;5093165;28;20052;-62
2022/05/02 07:17:36;;;;;;;11.13;8.32;;;11.10;99.90;;;;;;5087118;28;20059;-62
2022/05/02 07:20:10;;;;;;;18.88;10.02;;;11.30;99.90;;;;;;5048430;28;20052;-62
2022/05/02 07:22:42;;;;;;;12.45;8.85;;;11.40;99.90;;;;;;5092856;28;20403;-62
2022/05/02 07:25:12;;;;;;;12.98;8.38;;;11.50;99.90;;;;;;5085846;28;20037;-62
2022/05/02 07:28:17;;;;;;;13.20;7.97;;;11.60;99.90;;;;;;5084428;28;20097;-62
2022/05/02 07:30:46;;;;;;;15.38;8.68;;;11.50;99.90;;;;;;4992994;28;20090;-62
2022/05/02 07:33:13;;;;;;;11.55;8.38;;;11.50;99.90;;;;;;5009085;28;20138;-62
2022/05/02 07:35:42;;;;;;;15.80;8.80;;;11.50;99.90;;;;;;5043394;28;20064;-62
2022/05/02 07:38:12;;;;;;;12.98;7.88;;;11.30;99.90;;;;;;5075013;28;20377;-61
2022/05/02 07:41:22;;;;;;;12.63;8.10;;;11.30;99.90;;;;;;5071665;28;20060;-61
2022/05/02 07:43:34;;;;;;;12.68;8.93;;;11.30;99.90;;;;;;5076195;28;20047;-62
2022/05/02 07:46:03;;;;;;;13.95;9.40;;;11.30;99.90;;;;;;5084120;28;20036;-62
2022/05/02 07:48:32;;;;;;;14.52;9.20;;;11.40;99.90;;;;;;5092613;28;20048;-62
2022/05/02 07:51:02;;;;;;;13.95;8.90;;;11.40;99.90;;;;;;5073759;28;20055;-62
2022/05/02 07:53:31;;;;;;;14.48;8.98;;;11.40;99.90;;;;;;5085440;28;20040;-62
2022/05/02 07:56:00;;;;;;;16.92;7.70;;;11.50;99.90;;;;;;5083747;28;20032;-61
2022/05/02 07:58:27;;;;;;;12.02;8.10;;;11.60;99.90;;;;;;5092321;28;20051;-62
2022/05/02 08:00:54;;;;;;;11.30;7.90;;;11.80;99.90;;;;;;5091216;28;20035;-62
2022/05/02 08:03:21;;;;;;;;;;;11.90;99.90;;;;;;5083494;28;20075;-62
2022/05/02 08:05:55;;;;;;;11.40;7.93;;;12.00;99.90;;;;;;5091940;28;19923;-62
2022/05/02 08:08:34;;;;;;;13.30;8.45;;;12.00;99.90;;;;;;5092030;28;20041;-62
2022/05/02 08:11:42;;;;;;;13.48;8.32;;;12.00;99.90;;;;;;5085979;28;20453;-62
2022/05/02 08:14:16;;;;;;;14.00;8.93;;;12.30;99.90;;;;;;5058801;28;20575;-62
2022/05/02 08:16:58;;;;;;;11.93;7.70;;;12.10;99.90;;;;;;5071503;28;20074;-61
2022/05/02 08:19:40;;;;;;;13.55;8.32;;;12.00;99.90;;;;;;5074262;28;20638;-61
2022/05/02 08:28:41;;;;;;;9.18;7.03;;;12.00;99.90;;;;;;5058065;28;20565;-61
2022/05/02 08:31:49;;;;;;;18.67;6.88;;;12.30;99.90;;;;;;5083014;28;20040;-61
2022/05/02 08:34:32;;;;;;;11.20;7.03;;;12.50;99.90;;;;;;5091550;28;20508;-62
2022/05/02 08:37:09;;;;;;;14.75;7.53;;;12.60;99.90;;;;;;5089971;28;20036;-62
2022/05/02 08:39:53;;;;;;;12.05;7.90;;;12.60;99.90;;;;;;5079091;28;20048;-62
2022/05/02 08:42:58;;;;;;;10.52;7.43;;;12.80;99.90;;;;;;5071457;28;20105;-62
2022/05/02 08:46:06;;;;;;;12.23;7.18;;;12.70;99.90;;;;;;5076995;28;20036;-62
2022/05/02 08:48:33;;;;;;;;;;;12.70;99.90;;;;;;5083894;28;20456;-61
2022/05/02 08:51:29;;;;;;;10.57;6.88;;;12.80;99.90;;;;;;5088130;28;19923;-62
2022/05/02 08:54:28;;;;;;;14.60;7.25;;;12.80;99.90;;;;;;5089767;28;20442;-62
2022/05/02 08:57:10;;;;;;;9.70;6.97;;;12.70;99.90;;;;;;5052175;28;20047;-60
2022/05/02 09:00:07;;;;;;;9.45;7.00;;;12.90;99.90;;;;;;5088415;28;20035;-61
2022/05/02 09:02:43;;;;;;;9.82;7.05;;;13.20;99.90;;;;;;5085378;28;20047;-61
2022/05/02 09:05:43;;;;;;;10.60;7.25;;;13.20;99.90;;;;;;5061811;28;20031;-61
2022/05/02 09:08:34;;;;;;;9.13;6.38;;;13.10;99.90;;;;;;5071292;28;20040;-61
2022/05/02 09:11:10;;;;;;;10.38;6.45;;;13.40;99.90;;;;;;5090842;28;20442;-61
2022/05/02 09:14:13;;;;;;;10.23;5.70;;;13.60;99.90;;;;;;5083553;28;20184;-61
2022/05/02 09:20:45;;;;;;;9.43;5.82;;;14.60;99.90;;;;;;5102554;28;20484;-62
2022/05/02 09:23:53;;;;;;;8.77;5.82;;;15.40;99.90;;;;;;5102432;28;20054;-62
2022/05/02 09:26:54;;;;;;;8.20;5.82;;;15.80;99.90;;;;;;5093156;28;20036;-62
2022/05/02 09:29:24;;;;;;;11.00;5.25;;;15.90;99.90;;;;;;5091827;28;20048;-62
2022/05/02 09:32:05;;;;;;;6.88;4.97;;;15.90;99.90;;;;;;5091035;28;20052;-62
2022/05/02 09:34:36;;;;;;;6.53;5.32;;;16.00;99.90;;;;;;5078653;28;20047;-61
2022/05/02 09:37:03;;;;;;;9.43;5.32;;;16.00;99.90;;;;;;5092481;28;20047;-62
2022/05/02 09:39:42;;;;;;;6.72;5.35;;;16.10;99.90;;;;;;5090755;28;20043;-62
2022/05/02 09:42:12;;;;;;;5.97;5.10;;;15.90;99.90;;;;;;5090767;28;20527;-62
2022/05/02 09:50:31;;;;;;;;;;;16.40;99.90;;;;;;5090783;28;20036;-62
2022/05/02 09:53:21;;;;;;;8.00;5.22;;;16.50;99.90;;;;;;5095788;28;20395;-62
2022/05/02 09:59:09;;;;;;;9.07;4.68;;;16.30;99.90;;;;;;5087872;28;20048;-62
2022/05/02 10:02:07;;;;;;;5.78;4.03;;;16.10;99.90;;;;;;5092084;28;20648;-62
2022/05/02 10:04:45;;;;;;;3.70;3.08;;;16.10;99.90;;;;;;5115240;28;20047;-62
2022/05/02 10:07:16;;;;;;;;;;;16.10;99.90;;;;;;5115467;28;20451;-62
2022/05/02 10:09:54;;;;;;;5.80;2.10;;;16.30;99.90;;;;;;5091116;28;19920;-62
2022/05/02 10:13:03;;;;;;;2.28;1.83;;;16.40;99.90;;;;;;5102829;28;20043;-62
2022/05/02 10:15:50;;;;;;;5.25;2.05;;;16.60;99.90;;;;;;5094516;28;20040;-62
2022/05/02 10:18:16;;;;;;;2.67;2.25;;;16.90;99.90;;;;;;5090168;28;20412;-62
2022/05/02 10:21:07;;;;;;;4.65;2.50;;;17.00;99.90;;;;;;5102096;28;20040;-62
2022/05/02 10:24:02;;;;;;;3.28;2.60;;;16.80;99.90;;;;;;5094732;28;20059;-62
2022/05/02 10:26:36;;;;;;;3.38;2.63;;;16.70;99.90;;;;;;5094479;28;20067;-62
2022/05/02 10:29:35;;;;;;;4.82;3.20;;;16.60;99.90;;;;;;5085927;28;20055;-62
2022/05/02 10:32:02;;;;;;;;;;;16.70;99.90;;;;;;5097992;28;20051;-62
2022/05/02 10:34:32;;;;;;;5.72;3.50;;;16.10;99.90;;;;;;5094351;28;20376;-62
2022/05/02 10:37:06;;;;;;;5.82;2.85;;;16.00;99.90;;;;;;5089197;28;20089;-62
2022/05/02 10:39:47;;;;;;;6.60;3.28;;;16.10;99.90;;;;;;5085997;28;20044;-62
2022/05/02 10:42:18;;;;;;;5.93;3.72;;;16.00;99.90;;;;;;5093961;28;20048;-62
2022/05/02 10:45:01;;;;;;;3.75;3.17;;;16.00;99.90;;;;;;5076110;28;20093;-62
2022/05/02 10:47:38;;;;;;;2.78;2.45;;;16.10;99.90;;;;;;5089047;28;20051;-62
2022/05/02 10:50:18;;;;;;;4.60;3.20;;;16.10;99.90;;;;;;5078461;28;20059;-62
2022/05/02 10:53:16;;;;;;;7.03;3.13;;;15.90;99.90;;;;;;5093656;28;20048;-62
2022/05/02 10:56:01;;;;;;;4.32;3.63;;;16.00;99.90;;;;;;5093787;28;20040;-62
2022/05/02 10:58:34;;;;;;;6.20;2.72;;;16.10;99.90;;;;;;5073396;28;20055;-62
2022/05/02 11:01:07;;;;;;;9.68;3.47;;;16.20;99.90;;;;;;5073025;28;20063;-62
2022/05/02 11:04:00;;;;;;;5.85;3.20;;;16.20;99.90;;;;;;5090814;28;20053;-62
2022/05/02 11:06:53;;;;;;;4.20;3.80;;;16.30;99.90;;;;;;5073498;28;20036;-62
2022/05/02 11:09:31;;;;;;;5.15;3.83;;;16.50;99.90;;;;;;5073151;28;20044;-62
2022/05/02 11:12:01;;;;;;;8.73;3.50;;;16.60;99.90;;;;;;5080794;28;20500;-62
2022/05/02 11:14:55;;;;;;;5.57;4.50;;;16.90;99.90;;;;;;5085005;28;20040;-62
2022/05/02 11:17:30;;;;;;;4.30;3.78;;;17.10;99.90;;;;;;5093344;28;20048;-62
2022/05/02 11:22:59;;;;;;;4.93;3.95;;;17.40;99.90;;;;;;5088252;28;20070;-62
2022/05/02 11:25:48;;;;;;;6.57;4.22;;;17.70;99.90;;;;;;5093117;28;20040;-62
2022/05/02 11:29:03;;;;;;;8.52;4.63;;;17.80;99.90;;;;;;5093786;28;20504;-62
2022/05/02 11:31:37;;;;;;;8.45;5.07;;;18.20;99.90;;;;;;5066933;28;20061;-62
2022/05/02 11:34:35;;;;;;;6.75;4.43;;;18.30;99.90;;;;;;5072775;28;20080;-62
2022/05/02 11:37:06;;;;;;;5.45;4.53;;;18.40;99.90;;;;;;5097404;28;20092;-62
2022/05/02 11:39:54;;;;;;;5.88;4.30;;;18.90;99.90;;;;;;5092766;28;20089;-62
2022/05/02 11:42:22;;;;;;;5.32;4.38;;;19.20;99.90;;;;;;5092844;28;20474;-62
2022/05/02 11:45:13;;;;;;;5.90;4.32;;;19.20;99.90;;;;;;5089650;28;20073;-60
2022/05/02 11:47:51;;;;;;;6.82;4.30;;;19.10;99.90;;;;;;5091589;28;20437;-62
2022/05/02 11:50:22;;;;;;;6.68;3.67;;;19.00;99.90;;;;;;5112686;28;20047;-62
2022/05/02 11:52:54;;;;;;;4.47;3.75;;;18.80;99.90;;;;;;5113428;28;20416;-62
2022/05/02 11:55:33;;;;;;;8.20;4.53;;;18.50;99.90;;;;;;5098085;28;20543;-62
2022/05/02 11:58:08;;;;;;;10.05;4.53;;;18.80;99.90;;;;;;5093816;28;20046;-62
2022/05/02 12:00:36;;;;;;;4.60;4.05;;;18.70;99.90;;;;;;5092106;28;20086;-62
2022/05/02 12:03:10;;;;;;;5.57;4.10;;;18.70;99.90;;;;;;5083544;28;20032;-62
2022/05/02 12:05:40;;;;;;;5.47;4.65;;;18.30;99.90;;;;;;5093512;28;20036;-62
2022/05/02 12:08:10;;;;;;;7.15;3.85;;;18.10;99.90;;;;;;5092376;28;20447;-62
2022/05/02 12:10:47;;;;;;;8.18;3.70;;;18.20;99.90;;;;;;5092027;28;20048;-62
2022/05/02 12:13:17;;;;;;;7.35;3.28;;;18.40;99.90;;;;;;5084285;28;20036;-62
2022/05/02 12:15:58;;;;;;;5.32;2.70;;;18.70;99.90;;;;;;5093529;28;20438;-62
2022/05/02 12:18:43;;;;;;;5.35;3.05;;;18.80;99.90;;;;;;5092077;28;20072;-61
2022/05/02 12:21:20;;;;;;;4.70;2.83;;;18.70;99.90;;;;;;5086980;28;20043;-62
2022/05/02 12:23:49;;;;;;;4.85;2.70;;;18.70;99.90;;;;;;5097711;28;20093;-62
2022/05/02 12:26:21;;;;;;;3.63;2.45;;;18.50;99.90;;;;;;5092015;28;20059;-62
2022/05/02 12:28:58;;;;;;;2.22;2.03;;;18.50;99.90;;;;;;5092122;28;20123;-62
2022/05/02 12:31:29;;;;;;;2.55;2.20;;;18.50;99.90;;;;;;5087366;28;20047;-62
2022/05/02 12:34:05;;;;;;;2.30;2.10;;;18.40;99.90;;;;;;5096250;28;20427;-62
2022/05/02 12:36:44;;;;;;;2.95;2.13;;;18.50;99.90;;;;;;5091893;28;20044;-62
2022/05/02 12:39:28;;;;;;;3.80;2.30;;;18.40;99.90;;;;;;5084523;28;20043;-62
2022/05/02 12:42:21;;;;;;;5.18;2.35;;;18.40;99.90;;;;;;5088328;28;20040;-62
2022/05/02 12:45:11;;;;;;;5.70;2.40;;;18.30;99.90;;;;;;5092665;28;20506;-62
2022/05/02 12:47:48;;;;;;;2.40;1.98;;;18.00;99.90;;;;;;5109022;28;20033;-62
2022/05/02 12:50:18;;;;;;;3.65;2.00;;;18.10;99.90;;;;;;5095734;28;20044;-62
2022/05/02 12:52:47;;;;;;;2.42;2.17;;;18.00;99.90;;;;;;5097618;28;20400;-62
2022/05/02 12:55:15;;;;;;;2.30;2.10;;;18.20;99.90;;;;;;5100153;28;20052;-62
2022/05/02 13:00:42;;;;;;;3.78;2.22;;;18.40;99.90;;;;;;5075841;28;20531;-62
2022/05/02 13:03:17;;;;;;;5.53;2.10;;;18.50;99.90;;;;;;5098122;28;20039;-62
2022/05/02 13:05:46;;;;;;;3.63;1.98;;;18.60;99.90;;;;;;5097832;28;20496;-62
2022/05/02 13:08:19;;;;;;;5.25;2.20;;;18.60;99.90;;;;;;5100888;28;20048;-62
2022/05/02 13:10:51;;;;;;;3.35;2.08;;;18.80;99.90;;;;;;5094998;28;20554;-62
2022/05/02 13:13:18;;;;;;;2.50;2.15;;;19.00;99.90;;;;;;5100045;28;20063;-62
2022/05/02 13:15:48;;;;;;;2.05;1.85;;;19.10;99.90;;;;;;5099371;28;20518;-62
2022/05/02 13:18:22;;;;;;;2.20;2.00;;;19.00;99.90;;;;;;5102067;28;20093;-62
2022/05/02 13:21:03;;;;;;;7.82;2.45;;;19.10;99.90;;;;;;5102877;28;20040;-62
2022/05/02 13:23:55;;;;;;;3.15;1.80;;;19.20;99.90;;;;;;5103662;28;20097;-62
2022/05/02 13:26:32;;;;;;;2.97;2.10;;;19.30;99.90;;;;;;5103199;28;20055;-62
2022/05/02 13:29:17;;;;;;;1.83;1.73;;;19.30;99.90;;;;;;5102510;28;20040;-62
2022/05/02 13:31:44;;;;;;;2.10;1.80;;;19.10;99.90;;;;;;5090515;28;20056;-62
2022/05/02 13:34:29;;;;;;;3.83;1.58;;;18.80;99.90;;;;;;5092900;28;20416;-62
2022/05/02 13:37:12;;;;;;;3.47;1.70;;;19.00;99.90;;;;;;5089205;28;20127;-62
2022/05/02 13:40:05;;;;;;;1.52;1.20;;;19.60;99.90;;;;;;5093526;28;20051;-62
2022/05/02 13:42:50;;;;;;;1.92;1.42;;;20.10;98.10;;;;;;5089322;28;20488;-62
2022/05/02 13:45:19;;;;;;;1.85;1.40;;;20.50;98.20;;;;;;5094902;28;20052;-62
2022/05/02 13:47:55;;;;;;;1.92;1.73;;;21.00;97.60;;;;;;5087257;28;20403;-62
2022/05/02 13:50:26;;;;;;;2.35;1.63;;;21.40;96.40;;;;;;5094623;28;20508;-62
2022/05/02 13:53:24;;;;;;;2.95;1.40;;;21.90;95.60;;;;;;5093000;28;20044;-62
2022/05/02 13:56:31;;;;;;;2.72;1.58;;;22.20;94.50;;;;;;5090719;28;20040;-62
2022/05/02 13:59:10;;;;;;;1.60;1.30;;;22.30;91.10;;;;;;5086800;28;20446;-62
2022/05/02 14:01:45;;;;;;;1.30;1.15;;;21.60;92.60;;;;;;5090949;28;20036;-62
2022/05/02 14:04:21;;;;;;;4.10;1.58;;;21.10;92.00;;;;;;5087856;28;20032;-62
2022/05/02 14:09:56;;;;;;;2.17;1.33;;;20.50;94.20;;;;;;5087014;28;20377;-61
2022/05/02 14:12:22;;;;;;;2.20;1.70;;;20.10;95.30;;;;;;5081190;28;20066;-62